Vision — WDF6306 — position and weather

sailwx.info

Track history (hours):
 
Tides and Currents Weather Stations Pressure Air Temp Water Temp Dewpoint Dewpoint Depression Visibility Wind Speed Wind Dir Waves Ship Positions

Vision

Owner: INTREPID SHIP MANAGEMENT, JACKSONVILLE, FL. More information available from US FCC via Universal Licensing System and Coast Guard Vessel Documentation Center.

Last reported at 2014-Oct-31 04:33 UTC. Time now 2014-Oct-31 05:41 UTC.
Position N 48°31' W 122°34'.

Length 199 m; draft 6.7 m.

Type: Towing. MMSI: 366904000.

Date/timePositionNaut miles runAvg speedWind from/ knotsBaromVisibWave heightAir tempDewpointWater temp
2014-Oct-31 04:33N 48°31' W 122°34'0 0.0
2014-Oct-31 03:33N 48°31' W 122°34'0 0.1
2014-Oct-31 02:33N 48°32' W 122°34'1 0.6
2014-Oct-31 01:33N 48°31' W 122°35'1 0.6
2014-Oct-31 00:33N 48°31' W 122°35'0 0.0
2014-Oct-30 23:33N 48°31' W 122°35'0 0.0
2014-Oct-30 22:33N 48°31' W 122°35'0 0.0
2014-Oct-30 21:33N 48°31' W 122°35'0 0.0
2014-Oct-30 20:33N 48°31' W 122°35'0 0.0
2014-Oct-30 19:33N 48°31' W 122°35'0 0.0
2014-Oct-30 18:33N 48°31' W 122°35'0 0.0
2014-Oct-30 17:33N 48°31' W 122°35'0 0.0
2014-Oct-30 16:33N 48°31' W 122°35'0 0.0
2014-Oct-30 15:33N 48°31' W 122°35'0 0.0
2014-Oct-30 14:33N 48°31' W 122°35'0 0.0
2014-Oct-30 13:33N 48°31' W 122°35'0 0.0
2014-Oct-30 12:33N 48°31' W 122°35'0 0.0
2014-Oct-30 11:33N 48°31' W 122°35'0 0.0
2014-Oct-30 10:33N 48°31' W 122°35'0 0.0
2014-Oct-30 09:33N 48°31' W 122°35'0 0.0
2014-Oct-30 08:33N 48°31' W 122°35'0 0.0
2014-Oct-30 07:33N 48°31' W 122°35'0 0.0
2014-Oct-30 06:33N 48°31' W 122°35'0 0.0
2014-Oct-30 05:33N 48°31' W 122°35'0 0.0
2014-Oct-30 04:33N 48°31' W 122°35'0 0.0
2014-Oct-30 03:33N 48°31' W 122°35'0 0.0
2014-Oct-30 02:33N 48°31' W 122°35'0 0.0
2014-Oct-30 01:33N 48°31' W 122°35'0 0.0
2014-Oct-30 00:33N 48°31' W 122°35'1 0.5
2014-Oct-29 23:33N 48°31' W 122°35'1 1.1
2014-Oct-29 22:33N 48°31' W 122°34'0 0.1
2014-Oct-29 21:33N 48°31' W 122°34'0 0.0
2014-Oct-29 20:33N 48°31' W 122°34'0 0.1
2014-Oct-29 19:33N 48°32' W 122°34'0 0.2
2014-Oct-29 18:33N 48°31' W 122°34'0 0.0
2014-Oct-29 17:33N 48°31' W 122°34'0 0.1
2014-Oct-29 16:33N 48°31' W 122°34'0 0.3
2014-Oct-29 15:33N 48°32' W 122°34'0 0.1
2014-Oct-29 14:33N 48°32' W 122°34'0 0.1
2014-Oct-29 13:33N 48°32' W 122°34'0 0.0
2014-Oct-29 12:33N 48°32' W 122°34'0 0.1
2014-Oct-29 11:33N 48°32' W 122°34'0 0.0
2014-Oct-29 10:33N 48°32' W 122°34'0 0.0
2014-Oct-29 09:33N 48°32' W 122°34'1 0.5
2014-Oct-29 08:33N 48°32' W 122°35'7 7.3
2014-Oct-29 07:33N 48°28' W 122°44'1110.9
2014-Oct-29 06:33N 48°20' W 122°57'1111.5
2014-Oct-29 05:33N 48°14' W 123°11'1111.2
2014-Oct-29 04:33N 48°11' W 123°27'1211.8
2014-Oct-29 03:33N 48°13' W 123°45'8 8.3
2014-Oct-29 02:33N 48°14' W 123°57'9 8.8
2014-Oct-29 01:33N 48°17' W 124°09'1010.4
2014-Oct-29 00:33N 48°22' W 124°23'1313.0
2014-Oct-28 23:33N 48°27' W 124°40'1211.6
2014-Oct-28 22:32N 48°28' W 124°58'1212.1
2014-Oct-28 21:33N 48°19' W 125°09'  
2014-Oct-26 16:21N 38°30' W 124°26'7 8.3
2014-Oct-26 15:31N 38°26' W 124°19'8 8.1
2014-Oct-26 14:33N 38°21' W 124°10'8 8.1
2014-Oct-26 13:33N 38°16' W 124°02'9 9.1
2014-Oct-26 12:33N 38°10' W 123°54'9 9.1
2014-Oct-26 11:33N 38°04' W 123°45'9 9.2
2014-Oct-26 10:33N 37°58' W 123°36'9 8.5
2014-Oct-26 09:33N 37°52' W 123°28'1010.1
2014-Oct-26 08:33N 37°45' W 123°19'1010.4
2014-Oct-26 07:33N 37°38' W 123°10'8 8.0
2014-Oct-26 06:33N 37°36' W 122°60'1010.0
2014-Oct-26 05:33N 37°42' W 122°49'9 8.6
2014-Oct-26 04:34N 37°46' W 122°40'1010.2
2014-Oct-26 03:33N 37°50' W 122°28'7 7.1
2014-Oct-26 02:34N 37°46' W 122°20'0 0.0
2014-Oct-26 01:33N 37°46' W 122°20'0 0.0
2014-Oct-26 00:34N 37°46' W 122°20'0 0.0
2014-Oct-25 23:33N 37°46' W 122°20'0 0.0
2014-Oct-25 22:34N 37°46' W 122°20'0 0.0
2014-Oct-25 21:33N 37°46' W 122°20'0 0.1
2014-Oct-25 20:34N 37°46' W 122°20'0 0.2
2014-Oct-25 19:33N 37°45' W 122°20'8 7.6
2014-Oct-25 18:33N 37°52' W 122°25'9 9.2
2014-Oct-25 17:33N 38°01' W 122°24'1111.0
2014-Oct-25 16:32N 38°02' W 122°09'1 0.0
2014-Oct-23 23:28N 38°02' W 122°08'5 5.7
2014-Oct-23 22:33N 38°04' W 122°14'8 7.9
2014-Oct-23 21:33N 38°01' W 122°24'7 7.2
2014-Oct-23 20:33N 37°54' W 122°27'6 5.9
2014-Oct-23 19:33N 37°49' W 122°30'1110.6
2014-Oct-23 18:33N 37°44' W 122°42'9 9.1
2014-Oct-23 17:33N 37°39' W 122°51'9 8.6
2014-Oct-23 16:33N 37°34' W 122°60'8 8.1
2014-Oct-23 15:33N 37°32' W 123°10'9 8.5
2014-Oct-23 14:27N 37°32' W 123°22'9 8.1
2014-Oct-23 13:24N 37°34' W 123°33'10 9.4
2014-Oct-23 12:23N 37°40' W 123°42'8 9.4
2014-Oct-23 11:33N 37°46' W 123°49'9 9.4
2014-Oct-23 10:33N 37°52' W 123°58'  
Track history (hours):
 
Tides and Currents Weather Stations Pressure Air Temp Water Temp Dewpoint Dewpoint Depression Visibility Wind Speed Wind Dir Waves Ship Positions

Vision

Owner: INTREPID SHIP MANAGEMENT, JACKSONVILLE, FL. More information available from US FCC via Universal Licensing System and Coast Guard Vessel Documentation Center.

Last reported at 2014-Oct-31 04:33 UTC. Time now 2014-Oct-31 05:41 UTC.
Position N 48°31' W 122°34'.

Length 199 m; draft 6.7 m.

Type: Towing. MMSI: 366904000.

Date/timePositionNaut miles runAvg speedWind from/ knotsBaromVisibWave heightAir tempDewpointWater temp
2014-Oct-31 04:33N 48°31' W 122°34'0 0.0
2014-Oct-31 03:33N 48°31' W 122°34'0 0.1
2014-Oct-31 02:33N 48°32' W 122°34'1 0.6
2014-Oct-31 01:33N 48°31' W 122°35'1 0.6
2014-Oct-31 00:33N 48°31' W 122°35'0 0.0
2014-Oct-30 23:33N 48°31' W 122°35'0 0.0
2014-Oct-30 22:33N 48°31' W 122°35'0 0.0
2014-Oct-30 21:33N 48°31' W 122°35'0 0.0
2014-Oct-30 20:33N 48°31' W 122°35'0 0.0
2014-Oct-30 19:33N 48°31' W 122°35'0 0.0
2014-Oct-30 18:33N 48°31' W 122°35'0 0.0
2014-Oct-30 17:33N 48°31' W 122°35'0 0.0
2014-Oct-30 16:33N 48°31' W 122°35'0 0.0
2014-Oct-30 15:33N 48°31' W 122°35'0 0.0
2014-Oct-30 14:33N 48°31' W 122°35'0 0.0
2014-Oct-30 13:33N 48°31' W 122°35'0 0.0
2014-Oct-30 12:33N 48°31' W 122°35'0 0.0
2014-Oct-30 11:33N 48°31' W 122°35'0 0.0
2014-Oct-30 10:33N 48°31' W 122°35'0 0.0
2014-Oct-30 09:33N 48°31' W 122°35'0 0.0
2014-Oct-30 08:33N 48°31' W 122°35'0 0.0
2014-Oct-30 07:33N 48°31' W 122°35'0 0.0
2014-Oct-30 06:33N 48°31' W 122°35'0 0.0
2014-Oct-30 05:33N 48°31' W 122°35'0 0.0
2014-Oct-30 04:33N 48°31' W 122°35'0 0.0
2014-Oct-30 03:33N 48°31' W 122°35'0 0.0
2014-Oct-30 02:33N 48°31' W 122°35'0 0.0
2014-Oct-30 01:33N 48°31' W 122°35'0 0.0
2014-Oct-30 00:33N 48°31' W 122°35'1 0.5
2014-Oct-29 23:33N 48°31' W 122°35'1 1.1
2014-Oct-29 22:33N 48°31' W 122°34'0 0.1
2014-Oct-29 21:33N 48°31' W 122°34'0 0.0
2014-Oct-29 20:33N 48°31' W 122°34'0 0.1
2014-Oct-29 19:33N 48°32' W 122°34'0 0.2
2014-Oct-29 18:33N 48°31' W 122°34'0 0.0
2014-Oct-29 17:33N 48°31' W 122°34'0 0.1
2014-Oct-29 16:33N 48°31' W 122°34'0 0.3
2014-Oct-29 15:33N 48°32' W 122°34'0 0.1
2014-Oct-29 14:33N 48°32' W 122°34'0 0.1
2014-Oct-29 13:33N 48°32' W 122°34'0 0.0
2014-Oct-29 12:33N 48°32' W 122°34'0 0.1
2014-Oct-29 11:33N 48°32' W 122°34'0 0.0
2014-Oct-29 10:33N 48°32' W 122°34'0 0.0
2014-Oct-29 09:33N 48°32' W 122°34'1 0.5
2014-Oct-29 08:33N 48°32' W 122°35'7 7.3
2014-Oct-29 07:33N 48°28' W 122°44'1110.9
2014-Oct-29 06:33N 48°20' W 122°57'1111.5
2014-Oct-29 05:33N 48°14' W 123°11'1111.2
2014-Oct-29 04:33N 48°11' W 123°27'1211.8
2014-Oct-29 03:33N 48°13' W 123°45'8 8.3
2014-Oct-29 02:33N 48°14' W 123°57'9 8.8
2014-Oct-29 01:33N 48°17' W 124°09'1010.4
2014-Oct-29 00:33N 48°22' W 124°23'1313.0
2014-Oct-28 23:33N 48°27' W 124°40'1211.6
2014-Oct-28 22:32N 48°28' W 124°58'1212.1
2014-Oct-28 21:33N 48°19' W 125°09'  
2014-Oct-26 16:21N 38°30' W 124°26'7 8.3
2014-Oct-26 15:31N 38°26' W 124°19'8 8.1
2014-Oct-26 14:33N 38°21' W 124°10'8 8.1
2014-Oct-26 13:33N 38°16' W 124°02'9 9.1
2014-Oct-26 12:33N 38°10' W 123°54'9 9.1
2014-Oct-26 11:33N 38°04' W 123°45'9 9.2
2014-Oct-26 10:33N 37°58' W 123°36'9 8.5
2014-Oct-26 09:33N 37°52' W 123°28'1010.1
2014-Oct-26 08:33N 37°45' W 123°19'1010.4
2014-Oct-26 07:33N 37°38' W 123°10'8 8.0
2014-Oct-26 06:33N 37°36' W 122°60'1010.0
2014-Oct-26 05:33N 37°42' W 122°49'9 8.6
2014-Oct-26 04:34N 37°46' W 122°40'1010.2
2014-Oct-26 03:33N 37°50' W 122°28'7 7.1
2014-Oct-26 02:34N 37°46' W 122°20'0 0.0
2014-Oct-26 01:33N 37°46' W 122°20'0 0.0
2014-Oct-26 00:34N 37°46' W 122°20'0 0.0
2014-Oct-25 23:33N 37°46' W 122°20'0 0.0
2014-Oct-25 22:34N 37°46' W 122°20'0 0.0
2014-Oct-25 21:33N 37°46' W 122°20'0 0.1
2014-Oct-25 20:34N 37°46' W 122°20'0 0.2
2014-Oct-25 19:33N 37°45' W 122°20'8 7.6
2014-Oct-25 18:33N 37°52' W 122°25'9 9.2
2014-Oct-25 17:33N 38°01' W 122°24'1111.0
2014-Oct-25 16:32N 38°02' W 122°09'1 0.0
2014-Oct-23 23:28N 38°02' W 122°08'5 5.7
2014-Oct-23 22:33N 38°04' W 122°14'8 7.9
2014-Oct-23 21:33N 38°01' W 122°24'7 7.2
2014-Oct-23 20:33N 37°54' W 122°27'6 5.9
2014-Oct-23 19:33N 37°49' W 122°30'1110.6
2014-Oct-23 18:33N 37°44' W 122°42'9 9.1
2014-Oct-23 17:33N 37°39' W 122°51'9 8.6
2014-Oct-23 16:33N 37°34' W 122°60'8 8.1
2014-Oct-23 15:33N 37°32' W 123°10'9 8.5
2014-Oct-23 14:27N 37°32' W 123°22'9 8.1
2014-Oct-23 13:24N 37°34' W 123°33'10 9.4
2014-Oct-23 12:23N 37°40' W 123°42'8 9.4
2014-Oct-23 11:33N 37°46' W 123°49'9 9.4
2014-Oct-23 10:33N 37°52' W 123°58'  

Dump ship's entire track history